sensor_id;sensor_type;location;lat;lon;timestamp;P1;durP1;ratioP1;P2;durP2;ratioP2
35326;SDS011;21436;52.348;20.928;2023-06-22T00:01:25;49.58;;;35.28;;
35326;SDS011;21436;52.348;20.928;2023-06-22T00:03:53;52.88;;;36.20;;
35326;SDS011;21436;52.348;20.928;2023-06-22T00:06:21;49.22;;;36.28;;
35326;SDS011;21436;52.348;20.928;2023-06-22T00:08:49;48.65;;;36.47;;
35326;SDS011;21436;52.348;20.928;2023-06-22T00:11:17;48.88;;;37.17;;
35326;SDS011;21436;52.348;20.928;2023-06-22T00:13:45;56.60;;;41.53;;
35326;SDS011;21436;52.348;20.928;2023-06-22T00:16:13;60.38;;;40.47;;
35326;SDS011;21436;52.348;20.928;2023-06-22T00:18:41;54.80;;;40.38;;
35326;SDS011;21436;52.348;20.928;2023-06-22T00:26:48;51.67;;;34.88;;
35326;SDS011;21436;52.348;20.928;2023-06-22T00:29:16;49.25;;;36.88;;
35326;SDS011;21436;52.348;20.928;2023-06-22T00:31:46;50.13;;;36.53;;
35326;SDS011;21436;52.348;20.928;2023-06-22T00:34:14;52.13;;;38.10;;
35326;SDS011;21436;52.348;20.928;2023-06-22T00:36:43;49.30;;;37.60;;
35326;SDS011;21436;52.348;20.928;2023-06-22T00:39:11;55.22;;;38.88;;
35326;SDS011;21436;52.348;20.928;2023-06-22T00:41:39;47.75;;;37.15;;
35326;SDS011;21436;52.348;20.928;2023-06-22T00:44:07;55.25;;;38.90;;
35326;SDS011;21436;52.348;20.928;2023-06-22T00:46:36;56.13;;;40.15;;
35326;SDS011;21436;52.348;20.928;2023-06-22T00:49:05;54.00;;;40.10;;
35326;SDS011;21436;52.348;20.928;2023-06-22T00:51:32;54.42;;;40.28;;
35326;SDS011;21436;52.348;20.928;2023-06-22T00:54:00;54.35;;;39.85;;
35326;SDS011;21436;52.348;20.928;2023-06-22T00:56:28;57.45;;;40.00;;
35326;SDS011;21436;52.348;20.928;2023-06-22T00:58:57;61.80;;;45.00;;
35326;SDS011;21436;52.348;20.928;2023-06-22T01:01:26;54.13;;;40.20;;
35326;SDS011;21436;52.348;20.928;2023-06-22T01:03:55;56.38;;;41.67;;
35326;SDS011;21436;52.348;20.928;2023-06-22T01:06:29;52.55;;;39.83;;
35326;SDS011;21436;52.348;20.928;2023-06-22T01:09:13;54.63;;;40.60;;
35326;SDS011;21436;52.348;20.928;2023-06-22T01:11:48;55.10;;;40.50;;
35326;SDS011;21436;52.348;20.928;2023-06-22T01:14:28;55.60;;;38.55;;
35326;SDS011;21436;52.348;20.928;2023-06-22T01:17:13;55.88;;;40.08;;
35326;SDS011;21436;52.348;20.928;2023-06-22T01:19:44;56.72;;;38.00;;
35326;SDS011;21436;52.348;20.928;2023-06-22T01:22:24;50.63;;;37.97;;
35326;SDS011;21436;52.348;20.928;2023-06-22T01:30:15;56.30;;;38.88;;
35326;SDS011;21436;52.348;20.928;2023-06-22T01:32:45;53.33;;;39.55;;
35326;SDS011;21436;52.348;20.928;2023-06-22T01:35:13;62.70;;;44.10;;
35326;SDS011;21436;52.348;20.928;2023-06-22T01:37:42;58.40;;;44.55;;
35326;SDS011;21436;52.348;20.928;2023-06-22T01:40:10;51.47;;;39.63;;
35326;SDS011;21436;52.348;20.928;2023-06-22T01:42:39;49.38;;;38.70;;
35326;SDS011;21436;52.348;20.928;2023-06-22T01:45:07;50.67;;;36.17;;
35326;SDS011;21436;52.348;20.928;2023-06-22T01:47:37;49.88;;;36.75;;
35326;SDS011;21436;52.348;20.928;2023-06-22T01:50:09;48.00;;;35.95;;
35326;SDS011;21436;52.348;20.928;2023-06-22T01:52:37;52.17;;;37.65;;
35326;SDS011;21436;52.348;20.928;2023-06-22T01:55:05;50.65;;;37.95;;
35326;SDS011;21436;52.348;20.928;2023-06-22T01:57:35;53.45;;;41.30;;
35326;SDS011;21436;52.348;20.928;2023-06-22T02:00:07;57.03;;;40.28;;
35326;SDS011;21436;52.348;20.928;2023-06-22T02:02:43;58.75;;;41.45;;
35326;SDS011;21436;52.348;20.928;2023-06-22T02:05:38;58.20;;;40.22;;
35326;SDS011;21436;52.348;20.928;2023-06-22T02:08:13;66.38;;;43.85;;
35326;SDS011;21436;52.348;20.928;2023-06-22T02:10:52;67.97;;;48.60;;
35326;SDS011;21436;52.348;20.928;2023-06-22T02:13:23;68.38;;;46.33;;
35326;SDS011;21436;52.348;20.928;2023-06-22T02:15:52;83.15;;;52.65;;
35326;SDS011;21436;52.348;20.928;2023-06-22T02:18:21;86.25;;;58.72;;
35326;SDS011;21436;52.348;20.928;2023-06-22T02:20:48;88.03;;;59.45;;
35326;SDS011;21436;52.348;20.928;2023-06-22T02:23:16;91.93;;;61.22;;
35326;SDS011;21436;52.348;20.928;2023-06-22T02:25:44;91.78;;;61.45;;
35326;SDS011;21436;52.348;20.928;2023-06-22T02:28:13;92.90;;;60.65;;
35326;SDS011;21436;52.348;20.928;2023-06-22T02:30:41;89.57;;;60.30;;
35326;SDS011;21436;52.348;20.928;2023-06-22T02:33:09;94.30;;;62.08;;
35326;SDS011;21436;52.348;20.928;2023-06-22T02:35:37;105.68;;;65.50;;
35326;SDS011;21436;52.348;20.928;2023-06-22T02:38:07;110.32;;;68.97;;
35326;SDS011;21436;52.348;20.928;2023-06-22T02:40:35;117.47;;;72.95;;
35326;SDS011;21436;52.348;20.928;2023-06-22T02:43:03;116.20;;;72.97;;
35326;SDS011;21436;52.348;20.928;2023-06-22T02:45:31;118.88;;;70.93;;
35326;SDS011;21436;52.348;20.928;2023-06-22T02:48:00;119.05;;;74.07;;
35326;SDS011;21436;52.348;20.928;2023-06-22T02:50:28;117.22;;;72.45;;
35326;SDS011;21436;52.348;20.928;2023-06-22T02:52:57;115.70;;;72.60;;
35326;SDS011;21436;52.348;20.928;2023-06-22T02:55:27;121.03;;;74.15;;
35326;SDS011;21436;52.348;20.928;2023-06-22T02:57:58;122.88;;;76.07;;
35326;SDS011;21436;52.348;20.928;2023-06-22T03:00:30;121.63;;;75.70;;
35326;SDS011;21436;52.348;20.928;2023-06-22T03:02:59;127.18;;;76.18;;
35326;SDS011;21436;52.348;20.928;2023-06-22T03:05:28;123.63;;;78.30;;
35326;SDS011;21436;52.348;20.928;2023-06-22T03:07:59;124.82;;;75.88;;
35326;SDS011;21436;52.348;20.928;2023-06-22T03:10:31;123.97;;;76.70;;
35326;SDS011;21436;52.348;20.928;2023-06-22T03:12:59;124.97;;;75.88;;
35326;SDS011;21436;52.348;20.928;2023-06-22T03:15:27;122.57;;;76.07;;
35326;SDS011;21436;52.348;20.928;2023-06-22T03:17:57;118.90;;;74.95;;
35326;SDS011;21436;52.348;20.928;2023-06-22T03:20:24;125.07;;;74.65;;
35326;SDS011;21436;52.348;20.928;2023-06-22T03:22:55;120.22;;;72.78;;
35326;SDS011;21436;52.348;20.928;2023-06-22T03:25:23;113.68;;;71.38;;
35326;SDS011;21436;52.348;20.928;2023-06-22T03:27:51;115.82;;;71.68;;
35326;SDS011;21436;52.348;20.928;2023-06-22T03:30:19;112.22;;;70.00;;
35326;SDS011;21436;52.348;20.928;2023-06-22T03:32:47;107.10;;;67.78;;
35326;SDS011;21436;52.348;20.928;2023-06-22T03:35:15;103.65;;;67.53;;
35326;SDS011;21436;52.348;20.928;2023-06-22T03:37:43;105.35;;;66.70;;
35326;SDS011;21436;52.348;20.928;2023-06-22T03:40:11;101.47;;;65.68;;
35326;SDS011;21436;52.348;20.928;2023-06-22T03:42:40;101.57;;;66.03;;
35326;SDS011;21436;52.348;20.928;2023-06-22T03:45:09;104.85;;;68.10;;
35326;SDS011;21436;52.348;20.928;2023-06-22T03:47:37;107.72;;;66.22;;
35326;SDS011;21436;52.348;20.928;2023-06-22T03:50:06;109.75;;;68.75;;
35326;SDS011;21436;52.348;20.928;2023-06-22T03:52:35;105.53;;;67.53;;
35326;SDS011;21436;52.348;20.928;2023-06-22T03:55:03;105.95;;;66.85;;
35326;SDS011;21436;52.348;20.928;2023-06-22T03:57:31;96.30;;;64.72;;
35326;SDS011;21436;52.348;20.928;2023-06-22T03:59:59;97.20;;;62.88;;
35326;SDS011;21436;52.348;20.928;2023-06-22T04:02:28;94.97;;;61.60;;
35326;SDS011;21436;52.348;20.928;2023-06-22T04:04:55;86.78;;;58.53;;
35326;SDS011;21436;52.348;20.928;2023-06-22T04:07:23;84.90;;;58.60;;
35326;SDS011;21436;52.348;20.928;2023-06-22T04:09:51;84.93;;;55.58;;
35326;SDS011;21436;52.348;20.928;2023-06-22T04:12:19;78.60;;;53.50;;
35326;SDS011;21436;52.348;20.928;2023-06-22T04:14:47;75.35;;;53.85;;
35326;SDS011;21436;52.348;20.928;2023-06-22T04:17:16;74.97;;;51.90;;
35326;SDS011;21436;52.348;20.928;2023-06-22T04:19:45;72.38;;;50.47;;
35326;SDS011;21436;52.348;20.928;2023-06-22T04:22:13;71.65;;;50.38;;
35326;SDS011;21436;52.348;20.928;2023-06-22T04:24:41;67.45;;;49.10;;
35326;SDS011;21436;52.348;20.928;2023-06-22T04:27:09;64.55;;;46.72;;
35326;SDS011;21436;52.348;20.928;2023-06-22T04:29:37;60.65;;;45.53;;
35326;SDS011;21436;52.348;20.928;2023-06-22T04:34:52;64.47;;;43.30;;
35326;SDS011;21436;52.348;20.928;2023-06-22T04:37:20;58.42;;;42.88;;
35326;SDS011;21436;52.348;20.928;2023-06-22T04:39:50;58.03;;;41.40;;
35326;SDS011;21436;52.348;20.928;2023-06-22T04:42:19;58.22;;;40.85;;
35326;SDS011;21436;52.348;20.928;2023-06-22T04:44:47;58.45;;;40.42;;
35326;SDS011;21436;52.348;20.928;2023-06-22T04:47:15;56.22;;;39.97;;
35326;SDS011;21436;52.348;20.928;2023-06-22T04:49:43;58.10;;;39.60;;
35326;SDS011;21436;52.348;20.928;2023-06-22T04:52:12;57.80;;;40.65;;
35326;SDS011;21436;52.348;20.928;2023-06-22T04:54:41;52.88;;;39.17;;
35326;SDS011;21436;52.348;20.928;2023-06-22T04:57:15;48.33;;;36.90;;
35326;SDS011;21436;52.348;20.928;2023-06-22T04:59:43;53.33;;;38.47;;
35326;SDS011;21436;52.348;20.928;2023-06-22T05:02:11;52.72;;;38.20;;
35326;SDS011;21436;52.348;20.928;2023-06-22T05:04:39;48.50;;;37.30;;
35326;SDS011;21436;52.348;20.928;2023-06-22T05:07:08;51.55;;;37.00;;
35326;SDS011;21436;52.348;20.928;2023-06-22T05:09:37;48.03;;;34.40;;
35326;SDS011;21436;52.348;20.928;2023-06-22T05:12:05;47.60;;;33.80;;
35326;SDS011;21436;52.348;20.928;2023-06-22T05:14:37;46.55;;;32.72;;
35326;SDS011;21436;52.348;20.928;2023-06-22T05:17:05;43.15;;;30.80;;
35326;SDS011;21436;52.348;20.928;2023-06-22T05:19:42;41.00;;;28.50;;
35326;SDS011;21436;52.348;20.928;2023-06-22T05:22:12;43.42;;;30.92;;
35326;SDS011;21436;52.348;20.928;2023-06-22T05:24:40;42.10;;;30.75;;
35326;SDS011;21436;52.348;20.928;2023-06-22T05:27:10;39.78;;;29.95;;
35326;SDS011;21436;52.348;20.928;2023-06-22T05:29:37;41.78;;;29.00;;
35326;SDS011;21436;52.348;20.928;2023-06-22T05:32:06;39.97;;;29.23;;
35326;SDS011;21436;52.348;20.928;2023-06-22T05:34:34;43.92;;;29.63;;
35326;SDS011;21436;52.348;20.928;2023-06-22T05:37:03;41.38;;;28.90;;
35326;SDS011;21436;52.348;20.928;2023-06-22T05:39:31;36.53;;;26.17;;
35326;SDS011;21436;52.348;20.928;2023-06-22T05:41:59;36.60;;;26.75;;
35326;SDS011;21436;52.348;20.928;2023-06-22T05:44:26;35.55;;;26.80;;
35326;SDS011;21436;52.348;20.928;2023-06-22T05:46:54;31.95;;;24.92;;
35326;SDS011;21436;52.348;20.928;2023-06-22T05:49:23;36.40;;;26.45;;
35326;SDS011;21436;52.348;20.928;2023-06-22T05:51:58;36.85;;;25.25;;
35326;SDS011;21436;52.348;20.928;2023-06-22T05:54:27;32.90;;;24.20;;
35326;SDS011;21436;52.348;20.928;2023-06-22T05:56:56;32.17;;;23.52;;
35326;SDS011;21436;52.348;20.928;2023-06-22T05:59:24;31.35;;;24.10;;
35326;SDS011;21436;52.348;20.928;2023-06-22T06:01:52;36.00;;;23.92;;
35326;SDS011;21436;52.348;20.928;2023-06-22T06:04:20;33.80;;;24.20;;
35326;SDS011;21436;52.348;20.928;2023-06-22T06:06:49;34.13;;;23.80;;
35326;SDS011;21436;52.348;20.928;2023-06-22T06:09:17;32.00;;;23.23;;
35326;SDS011;21436;52.348;20.928;2023-06-22T06:11:46;32.42;;;23.27;;
35326;SDS011;21436;52.348;20.928;2023-06-22T06:14:13;30.02;;;22.02;;
35326;SDS011;21436;52.348;20.928;2023-06-22T06:16:42;27.95;;;22.10;;
35326;SDS011;21436;52.348;20.928;2023-06-22T06:19:09;30.60;;;21.75;;
35326;SDS011;21436;52.348;20.928;2023-06-22T06:21:37;28.45;;;21.60;;
35326;SDS011;21436;52.348;20.928;2023-06-22T06:24:05;28.00;;;20.42;;
35326;SDS011;21436;52.348;20.928;2023-06-22T06:26:34;28.17;;;20.73;;
35326;SDS011;21436;52.348;20.928;2023-06-22T06:29:03;31.08;;;20.33;;
35326;SDS011;21436;52.348;20.928;2023-06-22T06:31:31;26.52;;;20.02;;
35326;SDS011;21436;52.348;20.928;2023-06-22T06:33:59;26.77;;;19.25;;
35326;SDS011;21436;52.348;20.928;2023-06-22T06:36:27;28.70;;;18.80;;
35326;SDS011;21436;52.348;20.928;2023-06-22T06:38:54;24.20;;;17.45;;
35326;SDS011;21436;52.348;20.928;2023-06-22T06:41:22;23.08;;;17.48;;
35326;SDS011;21436;52.348;20.928;2023-06-22T06:43:50;18.40;;;15.93;;
35326;SDS011;21436;52.348;20.928;2023-06-22T06:46:19;24.70;;;16.63;;
35326;SDS011;21436;52.348;20.928;2023-06-22T06:48:47;18.45;;;16.00;;
35326;SDS011;21436;52.348;20.928;2023-06-22T06:51:15;27.85;;;16.73;;
35326;SDS011;21436;52.348;20.928;2023-06-22T06:53:43;19.13;;;15.15;;
35326;SDS011;21436;52.348;20.928;2023-06-22T06:56:11;18.77;;;14.80;;
35326;SDS011;21436;52.348;20.928;2023-06-22T06:58:42;22.92;;;15.75;;
35326;SDS011;21436;52.348;20.928;2023-06-22T07:01:12;20.75;;;15.07;;
35326;SDS011;21436;52.348;20.928;2023-06-22T07:03:40;18.85;;;14.73;;
35326;SDS011;21436;52.348;20.928;2023-06-22T07:06:08;18.92;;;14.07;;
35326;SDS011;21436;52.348;20.928;2023-06-22T07:08:42;19.20;;;14.52;;
35326;SDS011;21436;52.348;20.928;2023-06-22T07:11:24;15.60;;;12.75;;
35326;SDS011;21436;52.348;20.928;2023-06-22T07:13:52;20.33;;;13.57;;
35326;SDS011;21436;52.348;20.928;2023-06-22T07:16:21;16.73;;;12.57;;
35326;SDS011;21436;52.348;20.928;2023-06-22T07:18:50;18.52;;;12.55;;
35326;SDS011;21436;52.348;20.928;2023-06-22T07:21:18;16.63;;;12.13;;
35326;SDS011;21436;52.348;20.928;2023-06-22T07:23:46;16.60;;;11.00;;
35326;SDS011;21436;52.348;20.928;2023-06-22T07:26:14;17.92;;;10.10;;
35326;SDS011;21436;52.348;20.928;2023-06-22T07:28:43;13.68;;;9.65;;
35326;SDS011;21436;52.348;20.928;2023-06-22T07:31:11;12.57;;;9.30;;
35326;SDS011;21436;52.348;20.928;2023-06-22T07:33:39;14.50;;;9.52;;
35326;SDS011;21436;52.348;20.928;2023-06-22T07:36:07;15.80;;;8.63;;
35326;SDS011;21436;52.348;20.928;2023-06-22T07:38:35;15.90;;;8.65;;
35326;SDS011;21436;52.348;20.928;2023-06-22T07:41:04;10.98;;;7.93;;
35326;SDS011;21436;52.348;20.928;2023-06-22T07:43:33;9.45;;;8.13;;
35326;SDS011;21436;52.348;20.928;2023-06-22T07:46:04;14.65;;;7.72;;
35326;SDS011;21436;52.348;20.928;2023-06-22T07:48:32;13.65;;;7.93;;
35326;SDS011;21436;52.348;20.928;2023-06-22T07:51:00;11.70;;;6.80;;
35326;SDS011;21436;52.348;20.928;2023-06-22T07:53:28;10.30;;;6.32;;
35326;SDS011;21436;52.348;20.928;2023-06-22T07:55:56;9.73;;;6.78;;
35326;SDS011;21436;52.348;20.928;2023-06-22T07:58:24;13.23;;;6.25;;
35326;SDS011;21436;52.348;20.928;2023-06-22T08:00:52;9.85;;;6.80;;
35326;SDS011;21436;52.348;20.928;2023-06-22T08:03:21;10.27;;;6.20;;
35326;SDS011;21436;52.348;20.928;2023-06-22T08:05:49;8.07;;;5.65;;
35326;SDS011;21436;52.348;20.928;2023-06-22T08:08:17;10.27;;;5.43;;
35326;SDS011;21436;52.348;20.928;2023-06-22T08:10:46;7.25;;;5.20;;
35326;SDS011;21436;52.348;20.928;2023-06-22T08:13:13;9.05;;;5.05;;
35326;SDS011;21436;52.348;20.928;2023-06-22T08:15:42;8.10;;;4.82;;
35326;SDS011;21436;52.348;20.928;2023-06-22T08:18:10;8.80;;;5.00;;
35326;SDS011;21436;52.348;20.928;2023-06-22T08:20:38;10.52;;;4.63;;
35326;SDS011;21436;52.348;20.928;2023-06-22T08:23:11;7.18;;;4.47;;
35326;SDS011;21436;52.348;20.928;2023-06-22T08:25:39;11.02;;;4.43;;
35326;SDS011;21436;52.348;20.928;2023-06-22T08:28:07;7.22;;;4.30;;
35326;SDS011;21436;52.348;20.928;2023-06-22T08:30:36;6.60;;;3.88;;
35326;SDS011;21436;52.348;20.928;2023-06-22T08:33:04;6.55;;;3.50;;
35326;SDS011;21436;52.348;20.928;2023-06-22T08:35:33;4.13;;;3.20;;
35326;SDS011;21436;52.348;20.928;2023-06-22T08:38:00;15.60;;;4.72;;
35326;SDS011;21436;52.348;20.928;2023-06-22T08:40:29;7.85;;;4.40;;
35326;SDS011;21436;52.348;20.928;2023-06-22T08:42:57;9.73;;;4.43;;
35326;SDS011;21436;52.348;20.928;2023-06-22T08:45:26;7.35;;;4.53;;
35326;SDS011;21436;52.348;20.928;2023-06-22T08:47:56;6.18;;;4.32;;
35326;SDS011;21436;52.348;20.928;2023-06-22T08:50:24;5.05;;;4.03;;
35326;SDS011;21436;52.348;20.928;2023-06-22T08:52:52;9.02;;;3.88;;
35326;SDS011;21436;52.348;20.928;2023-06-22T08:55:21;7.25;;;3.55;;
35326;SDS011;21436;52.348;20.928;2023-06-22T08:57:49;9.70;;;4.50;;
35326;SDS011;21436;52.348;20.928;2023-06-22T09:00:18;5.22;;;3.90;;
35326;SDS011;21436;52.348;20.928;2023-06-22T09:02:47;6.45;;;3.72;;
35326;SDS011;21436;52.348;20.928;2023-06-22T09:05:16;6.85;;;4.03;;
35326;SDS011;21436;52.348;20.928;2023-06-22T09:07:44;9.23;;;3.95;;
35326;SDS011;21436;52.348;20.928;2023-06-22T09:10:14;6.90;;;3.85;;
35326;SDS011;21436;52.348;20.928;2023-06-22T09:12:42;8.65;;;4.50;;
35326;SDS011;21436;52.348;20.928;2023-06-22T09:15:10;11.45;;;4.80;;
35326;SDS011;21436;52.348;20.928;2023-06-22T09:17:42;8.02;;;3.70;;
35326;SDS011;21436;52.348;20.928;2023-06-22T09:20:11;12.57;;;4.45;;
35326;SDS011;21436;52.348;20.928;2023-06-22T09:22:39;7.43;;;4.32;;
35326;SDS011;21436;52.348;20.928;2023-06-22T09:25:08;8.90;;;4.50;;
35326;SDS011;21436;52.348;20.928;2023-06-22T09:27:36;10.55;;;3.88;;
35326;SDS011;21436;52.348;20.928;2023-06-22T09:30:04;4.70;;;3.88;;
35326;SDS011;21436;52.348;20.928;2023-06-22T09:32:33;6.30;;;4.72;;
35326;SDS011;21436;52.348;20.928;2023-06-22T09:35:03;13.65;;;5.22;;
35326;SDS011;21436;52.348;20.928;2023-06-22T09:37:37;8.02;;;4.35;;
35326;SDS011;21436;52.348;20.928;2023-06-22T09:40:06;5.53;;;4.13;;
35326;SDS011;21436;52.348;20.928;2023-06-22T09:42:40;8.30;;;4.40;;
35326;SDS011;21436;52.348;20.928;2023-06-22T09:45:09;11.55;;;4.35;;
35326;SDS011;21436;52.348;20.928;2023-06-22T09:47:37;8.75;;;4.47;;
35326;SDS011;21436;52.348;20.928;2023-06-22T09:50:06;6.28;;;4.03;;
35326;SDS011;21436;52.348;20.928;2023-06-22T09:52:34;9.90;;;4.40;;
35326;SDS011;21436;52.348;20.928;2023-06-22T09:55:15;8.50;;;4.82;;
35326;SDS011;21436;52.348;20.928;2023-06-22T09:57:43;7.35;;;4.45;;
35326;SDS011;21436;52.348;20.928;2023-06-22T10:00:12;7.75;;;4.82;;
35326;SDS011;21436;52.348;20.928;2023-06-22T10:02:41;10.10;;;5.18;;
35326;SDS011;21436;52.348;20.928;2023-06-22T10:05:10;10.30;;;5.20;;
35326;SDS011;21436;52.348;20.928;2023-06-22T10:07:38;9.90;;;5.45;;
35326;SDS011;21436;52.348;20.928;2023-06-22T10:10:10;7.22;;;5.38;;
35326;SDS011;21436;52.348;20.928;2023-06-22T10:12:43;13.32;;;5.15;;
35326;SDS011;21436;52.348;20.928;2023-06-22T10:15:13;12.70;;;5.30;;
35326;SDS011;21436;52.348;20.928;2023-06-22T10:17:45;7.30;;;4.68;;
35326;SDS011;21436;52.348;20.928;2023-06-22T10:20:13;4.68;;;4.22;;
35326;SDS011;21436;52.348;20.928;2023-06-22T10:22:43;7.50;;;5.15;;
35326;SDS011;21436;52.348;20.928;2023-06-22T10:25:12;11.55;;;5.20;;
35326;SDS011;21436;52.348;20.928;2023-06-22T10:27:40;8.00;;;5.22;;
35326;SDS011;21436;52.348;20.928;2023-06-22T10:30:09;8.95;;;5.40;;
35326;SDS011;21436;52.348;20.928;2023-06-22T10:32:40;10.00;;;4.82;;
35326;SDS011;21436;52.348;20.928;2023-06-22T10:35:11;9.68;;;5.32;;
35326;SDS011;21436;52.348;20.928;2023-06-22T10:37:42;6.10;;;5.50;;
35326;SDS011;21436;52.348;20.928;2023-06-22T10:42:43;9.55;;;6.13;;
35326;SDS011;21436;52.348;20.928;2023-06-22T10:45:11;8.25;;;5.53;;
35326;SDS011;21436;52.348;20.928;2023-06-22T10:47:39;8.07;;;4.88;;
35326;SDS011;21436;52.348;20.928;2023-06-22T10:50:10;10.43;;;5.72;;
35326;SDS011;21436;52.348;20.928;2023-06-22T10:52:38;6.55;;;5.18;;
35326;SDS011;21436;52.348;20.928;2023-06-22T10:55:07;9.20;;;5.05;;
35326;SDS011;21436;52.348;20.928;2023-06-22T10:57:36;8.57;;;5.72;;
35326;SDS011;21436;52.348;20.928;2023-06-22T11:00:04;12.88;;;5.45;;
35326;SDS011;21436;52.348;20.928;2023-06-22T11:02:33;9.38;;;5.63;;
35326;SDS011;21436;52.348;20.928;2023-06-22T11:05:01;9.68;;;5.40;;
35326;SDS011;21436;52.348;20.928;2023-06-22T11:07:30;11.07;;;5.60;;
35326;SDS011;21436;52.348;20.928;2023-06-22T11:09:58;15.13;;;5.82;;
35326;SDS011;21436;52.348;20.928;2023-06-22T11:12:25;12.88;;;5.30;;
35326;SDS011;21436;52.348;20.928;2023-06-22T11:14:53;7.90;;;4.95;;
35326;SDS011;21436;52.348;20.928;2023-06-22T11:17:23;7.32;;;5.38;;
35326;SDS011;21436;52.348;20.928;2023-06-22T11:19:52;9.73;;;5.60;;
35326;SDS011;21436;52.348;20.928;2023-06-22T11:22:19;9.57;;;5.30;;
35326;SDS011;21436;52.348;20.928;2023-06-22T11:24:47;9.10;;;5.68;;
35326;SDS011;21436;52.348;20.928;2023-06-22T11:27:15;12.68;;;5.32;;
35326;SDS011;21436;52.348;20.928;2023-06-22T11:29:43;7.15;;;4.88;;
35326;SDS011;21436;52.348;20.928;2023-06-22T11:32:11;6.82;;;5.38;;
35326;SDS011;21436;52.348;20.928;2023-06-22T11:34:41;11.30;;;5.75;;
35326;SDS011;21436;52.348;20.928;2023-06-22T11:37:09;11.38;;;4.90;;
35326;SDS011;21436;52.348;20.928;2023-06-22T11:39:37;9.20;;;5.35;;
35326;SDS011;21436;52.348;20.928;2023-06-22T11:42:09;13.18;;;5.82;;
35326;SDS011;21436;52.348;20.928;2023-06-22T11:44:37;11.85;;;5.90;;
35326;SDS011;21436;52.348;20.928;2023-06-22T11:47:05;8.90;;;5.32;;
35326;SDS011;21436;52.348;20.928;2023-06-22T11:49:34;6.50;;;5.13;;
35326;SDS011;21436;52.348;20.928;2023-06-22T11:52:02;7.28;;;4.93;;
35326;SDS011;21436;52.348;20.928;2023-06-22T11:54:30;7.78;;;5.15;;
35326;SDS011;21436;52.348;20.928;2023-06-22T11:56:57;8.73;;;5.32;;
35326;SDS011;21436;52.348;20.928;2023-06-22T11:59:25;7.43;;;5.40;;
35326;SDS011;21436;52.348;20.928;2023-06-22T12:01:53;7.00;;;4.85;;
35326;SDS011;21436;52.348;20.928;2023-06-22T12:04:21;15.13;;;5.50;;
35326;SDS011;21436;52.348;20.928;2023-06-22T12:06:48;8.55;;;5.60;;
35326;SDS011;21436;52.348;20.928;2023-06-22T12:09:16;7.20;;;5.47;;
35326;SDS011;21436;52.348;20.928;2023-06-22T12:11:44;11.00;;;6.13;;
35326;SDS011;21436;52.348;20.928;2023-06-22T12:14:12;16.02;;;6.32;;
35326;SDS011;21436;52.348;20.928;2023-06-22T12:16:40;10.10;;;5.88;;
35326;SDS011;21436;52.348;20.928;2023-06-22T12:19:09;7.15;;;5.90;;
35326;SDS011;21436;52.348;20.928;2023-06-22T12:21:38;6.53;;;5.60;;
35326;SDS011;21436;52.348;20.928;2023-06-22T12:24:08;6.03;;;5.35;;
35326;SDS011;21436;52.348;20.928;2023-06-22T12:26:36;6.68;;;5.57;;
35326;SDS011;21436;52.348;20.928;2023-06-22T12:29:04;9.93;;;5.93;;
35326;SDS011;21436;52.348;20.928;2023-06-22T12:31:32;6.28;;;4.95;;
35326;SDS011;21436;52.348;20.928;2023-06-22T12:34:01;6.97;;;5.32;;
35326;SDS011;21436;52.348;20.928;2023-06-22T12:36:29;7.55;;;4.50;;
35326;SDS011;21436;52.348;20.928;2023-06-22T12:38:57;6.60;;;5.55;;
35326;SDS011;21436;52.348;20.928;2023-06-22T12:41:25;7.50;;;5.72;;
35326;SDS011;21436;52.348;20.928;2023-06-22T12:43:53;11.25;;;5.82;;
35326;SDS011;21436;52.348;20.928;2023-06-22T12:46:22;9.00;;;5.68;;
35326;SDS011;21436;52.348;20.928;2023-06-22T12:48:50;8.43;;;6.07;;
35326;SDS011;21436;52.348;20.928;2023-06-22T12:51:22;8.07;;;5.97;;
35326;SDS011;21436;52.348;20.928;2023-06-22T12:53:51;6.32;;;5.60;;
35326;SDS011;21436;52.348;20.928;2023-06-22T12:56:19;8.07;;;5.57;;
35326;SDS011;21436;52.348;20.928;2023-06-22T12:58:47;7.00;;;6.10;;
35326;SDS011;21436;52.348;20.928;2023-06-22T13:01:15;6.80;;;5.97;;
35326;SDS011;21436;52.348;20.928;2023-06-22T13:03:46;8.95;;;6.40;;
35326;SDS011;21436;52.348;20.928;2023-06-22T13:06:14;7.25;;;6.50;;
35326;SDS011;21436;52.348;20.928;2023-06-22T13:08:42;10.50;;;6.82;;
35326;SDS011;21436;52.348;20.928;2023-06-22T13:11:30;8.00;;;6.35;;
35326;SDS011;21436;52.348;20.928;2023-06-22T13:13:58;10.38;;;6.30;;
35326;SDS011;21436;52.348;20.928;2023-06-22T13:16:26;6.32;;;5.72;;
35326;SDS011;21436;52.348;20.928;2023-06-22T13:18:58;10.18;;;6.53;;
35326;SDS011;21436;52.348;20.928;2023-06-22T13:21:26;8.48;;;6.28;;
35326;SDS011;21436;52.348;20.928;2023-06-22T13:23:54;11.63;;;7.00;;
35326;SDS011;21436;52.348;20.928;2023-06-22T13:26:23;8.82;;;6.95;;
35326;SDS011;21436;52.348;20.928;2023-06-22T13:28:52;8.82;;;6.80;;
35326;SDS011;21436;52.348;20.928;2023-06-22T13:31:20;10.57;;;6.80;;
35326;SDS011;21436;52.348;20.928;2023-06-22T13:33:50;30.95;;;7.35;;
35326;SDS011;21436;52.348;20.928;2023-06-22T13:36:19;7.53;;;6.53;;
35326;SDS011;21436;52.348;20.928;2023-06-22T13:38:48;10.43;;;7.20;;
35326;SDS011;21436;52.348;20.928;2023-06-22T13:41:16;10.77;;;6.63;;
35326;SDS011;21436;52.348;20.928;2023-06-22T13:43:45;9.95;;;7.18;;
35326;SDS011;21436;52.348;20.928;2023-06-22T13:46:13;8.10;;;7.20;;
35326;SDS011;21436;52.348;20.928;2023-06-22T13:48:41;7.90;;;7.03;;
35326;SDS011;21436;52.348;20.928;2023-06-22T13:51:09;10.05;;;6.97;;
35326;SDS011;21436;52.348;20.928;2023-06-22T13:53:37;10.23;;;6.82;;
35326;SDS011;21436;52.348;20.928;2023-06-22T13:56:05;11.73;;;7.07;;
35326;SDS011;21436;52.348;20.928;2023-06-22T13:58:33;11.88;;;6.20;;
35326;SDS011;21436;52.348;20.928;2023-06-22T14:01:01;8.27;;;6.68;;
35326;SDS011;21436;52.348;20.928;2023-06-22T14:03:29;9.25;;;6.78;;
35326;SDS011;21436;52.348;20.928;2023-06-22T14:05:57;12.10;;;7.05;;
35326;SDS011;21436;52.348;20.928;2023-06-22T14:08:26;9.40;;;7.03;;
35326;SDS011;21436;52.348;20.928;2023-06-22T14:10:56;9.35;;;7.10;;
35326;SDS011;21436;52.348;20.928;2023-06-22T14:13:25;8.07;;;6.88;;
35326;SDS011;21436;52.348;20.928;2023-06-22T14:15:53;7.95;;;7.15;;
35326;SDS011;21436;52.348;20.928;2023-06-22T14:18:22;12.35;;;6.95;;
35326;SDS011;21436;52.348;20.928;2023-06-22T14:20:50;10.15;;;6.05;;
35326;SDS011;21436;52.348;20.928;2023-06-22T14:23:19;9.13;;;6.43;;
35326;SDS011;21436;52.348;20.928;2023-06-22T14:25:47;7.20;;;6.10;;
35326;SDS011;21436;52.348;20.928;2023-06-22T14:28:15;7.78;;;6.38;;
35326;SDS011;21436;52.348;20.928;2023-06-22T14:30:44;6.93;;;6.13;;
35326;SDS011;21436;52.348;20.928;2023-06-22T14:33:12;10.27;;;6.20;;
35326;SDS011;21436;52.348;20.928;2023-06-22T14:35:40;9.07;;;5.97;;
35326;SDS011;21436;52.348;20.928;2023-06-22T14:38:08;6.95;;;5.57;;
35326;SDS011;21436;52.348;20.928;2023-06-22T14:40:36;7.07;;;5.65;;
35326;SDS011;21436;52.348;20.928;2023-06-22T14:43:25;6.60;;;5.75;;
35326;SDS011;21436;52.348;20.928;2023-06-22T14:45:53;8.98;;;5.93;;